createdAt,value
2017-08-10T00:01:10.545Z,20.14
2017-08-10T00:02:23.042Z,20.11
2017-08-10T00:03:35.692Z,20.14
2017-08-10T00:04:47.666Z,20.15
2017-08-10T00:06:00.226Z,20.17
2017-08-10T00:07:12.523Z,20.15
2017-08-10T00:08:25.178Z,20.14
2017-08-10T00:09:37.764Z,20.15
2017-08-10T00:10:50.316Z,20.15
2017-08-10T00:12:03.181Z,20.18
2017-08-10T00:13:15.824Z,20.12
2017-08-10T00:14:28.113Z,20.21
2017-08-10T00:15:40.750Z,20.17
2017-08-10T00:16:53.388Z,20.11
2017-08-10T00:18:05.637Z,20.15
2017-08-10T00:19:17.905Z,20.21
2017-08-10T00:20:30.201Z,20.14
2017-08-10T00:21:42.805Z,20.22
2017-08-10T00:22:55.623Z,20.21
2017-08-10T00:24:08.212Z,20.1
2017-08-10T00:25:20.565Z,20.15
2017-08-10T00:26:32.880Z,20.18
2017-08-10T00:27:45.436Z,20.15
2017-08-10T00:28:58.058Z,20.19
2017-08-10T00:30:10.658Z,20.17
2017-08-10T00:31:23.017Z,20.18
2017-08-10T00:32:35.612Z,20.17
2017-08-10T00:33:48.209Z,20.26
2017-08-10T00:35:00.800Z,20.22
2017-08-10T00:36:13.385Z,20.21
2017-08-10T00:37:26.046Z,20.24
2017-08-10T00:38:38.321Z,20.26
2017-08-10T00:39:50.554Z,20.18
2017-08-10T00:41:02.790Z,20.27
2017-08-10T00:42:15.434Z,20.26
2017-08-10T00:43:28.038Z,20.26
2017-08-10T00:44:40.655Z,20.17
2017-08-10T00:45:52.901Z,20.22
2017-08-10T00:47:05.202Z,20.22
2017-08-10T00:48:17.510Z,20.27
2017-08-10T00:49:30.077Z,20.22
2017-08-10T00:50:42.343Z,20.22
2017-08-10T00:51:54.993Z,20.29
2017-08-10T00:53:07.018Z,20.26
2017-08-10T00:54:19.609Z,20.18
2017-08-10T00:55:31.907Z,20.12
2017-08-10T00:56:43.851Z,20.14
2017-08-10T00:57:56.141Z,20.04
2017-08-10T00:59:08.397Z,19.96
2017-08-10T01:00:20.701Z,19.85
2017-08-10T01:01:33.299Z,19.92
2017-08-10T01:02:45.968Z,19.82
2017-08-10T01:03:57.963Z,19.78
2017-08-10T01:05:10.228Z,19.64
2017-08-10T01:06:22.481Z,19.66
2017-08-10T01:07:35.140Z,19.71
2017-08-10T01:08:47.519Z,19.63
2017-08-10T01:09:59.450Z,19.55
2017-08-10T01:11:11.678Z,19.49
2017-08-10T01:12:23.661Z,19.48
2017-08-10T01:13:36.272Z,19.45
2017-08-10T01:14:48.839Z,19.42
2017-08-10T01:16:01.129Z,19.37
2017-08-10T01:17:13.126Z,19.34
2017-08-10T01:18:25.776Z,19.23
2017-08-10T01:19:38.072Z,19.22
2017-08-10T01:20:50.358Z,19.23
2017-08-10T01:22:02.941Z,19.12
2017-08-10T01:23:15.216Z,19.11
2017-08-10T01:24:27.225Z,19.12
2017-08-10T01:25:39.489Z,19.07
2017-08-10T01:26:51.810Z,19.05
2017-08-10T01:28:03.772Z,18.92
2017-08-10T01:29:15.459Z,18.97
2017-08-10T01:30:27.466Z,18.83
2017-08-10T01:31:40.061Z,18.88
2017-08-10T01:32:52.343Z,18.81
2017-08-10T01:34:04.906Z,18.81
2017-08-10T01:35:17.543Z,18.78
2017-08-10T01:36:29.742Z,18.66
2017-08-10T01:37:42.370Z,18.64
2017-08-10T01:38:54.038Z,18.61
2017-08-10T01:40:06.617Z,18.55
2017-08-10T01:41:18.578Z,18.51
2017-08-10T01:42:30.900Z,18.39
2017-08-10T01:43:43.218Z,18.27
2017-08-10T01:44:55.465Z,18.3
2017-08-10T01:46:07.717Z,18.34
2017-08-10T01:47:20.337Z,18.19
2017-08-10T01:48:32.896Z,18.11
2017-08-10T01:49:45.453Z,18.03
2017-08-10T01:50:57.783Z,18.03
2017-08-10T01:52:10.393Z,17.98
2017-08-10T01:53:22.978Z,17.93
2017-08-10T01:54:34.979Z,17.86
2017-08-10T01:55:47.575Z,17.73
2017-08-10T01:57:00.103Z,17.71
2017-08-10T01:58:12.780Z,17.68
2017-08-10T01:59:24.776Z,17.56
2017-08-10T02:00:37.093Z,17.56
2017-08-10T02:01:49.085Z,17.49
2017-08-10T02:03:01.404Z,17.35
2017-08-10T02:04:13.701Z,17.22
2017-08-10T02:05:26.290Z,17.19
2017-08-10T02:06:38.533Z,17.1
2017-08-10T02:07:50.815Z,17.02
2017-08-10T02:09:03.462Z,17.07
2017-08-10T02:10:15.761Z,16.94
2017-08-10T02:11:28.302Z,16.95
2017-08-10T02:12:40.821Z,16.99
2017-08-10T02:13:53.170Z,16.95
2017-08-10T02:15:05.443Z,16.87
2017-08-10T02:16:18.015Z,17.01
2017-08-10T02:17:30.552Z,16.89
2017-08-10T02:18:42.924Z,16.98
2017-08-10T02:19:55.500Z,16.87
2017-08-10T02:21:07.825Z,16.84
2017-08-10T02:22:20.502Z,16.76
2017-08-10T02:23:33.064Z,16.76
2017-08-10T02:24:45.697Z,16.66
2017-08-10T02:25:57.992Z,16.65
2017-08-10T02:27:10.338Z,16.62
2017-08-10T02:28:22.923Z,16.62
2017-08-10T02:29:35.180Z,16.65
2017-08-10T02:30:47.742Z,16.58
2017-08-10T02:31:59.995Z,16.58
2017-08-10T02:33:12.580Z,16.61
2017-08-10T02:34:24.514Z,16.61
2017-08-10T02:35:37.061Z,16.59
2017-08-10T02:36:49.363Z,16.62
2017-08-10T02:38:01.302Z,16.66
2017-08-10T02:39:12.953Z,16.57
2017-08-10T02:40:24.895Z,16.57
2017-08-10T02:41:37.486Z,16.55
2017-08-10T02:42:50.097Z,16.57
2017-08-10T02:44:02.420Z,16.57
2017-08-10T02:45:14.465Z,16.61
2017-08-10T02:46:27.055Z,16.55
2017-08-10T02:47:39.693Z,16.55
2017-08-10T02:48:52.004Z,16.59
2017-08-10T02:50:04.645Z,16.59
2017-08-10T02:51:16.956Z,16.59
2017-08-10T02:52:29.258Z,16.61
2017-08-10T02:53:41.579Z,16.57
2017-08-10T02:54:54.138Z,16.61
2017-08-10T02:56:06.473Z,16.58
2017-08-10T02:57:18.377Z,16.59
2017-08-10T02:58:30.701Z,16.59
2017-08-10T02:59:42.992Z,16.64
2017-08-10T03:00:55.285Z,16.61
2017-08-10T03:02:07.526Z,16.62
2017-08-10T03:03:20.177Z,16.59
2017-08-10T03:04:32.422Z,16.62
2017-08-10T03:05:44.983Z,16.66
2017-08-10T03:06:57.547Z,16.62
2017-08-10T03:08:09.835Z,16.64
2017-08-10T03:09:22.103Z,16.51
2017-08-10T03:10:34.704Z,16.59
2017-08-10T03:11:47.049Z,16.57
2017-08-10T03:12:59.348Z,16.54
2017-08-10T03:14:11.062Z,16.51
2017-08-10T03:15:23.679Z,16.54
2017-08-10T03:16:36.033Z,16.51
2017-08-10T03:17:48.367Z,16.51
2017-08-10T03:19:00.964Z,16.54
2017-08-10T03:20:13.234Z,16.54
2017-08-10T03:21:25.816Z,16.55
2017-08-10T03:22:38.382Z,16.49
2017-08-10T03:23:51.012Z,16.57
2017-08-10T03:25:03.573Z,16.49
2017-08-10T03:26:15.845Z,16.54
2017-08-10T03:27:28.147Z,16.55
2017-08-10T03:28:40.180Z,16.57
2017-08-10T03:29:52.187Z,16.47
2017-08-10T03:31:04.785Z,16.57
2017-08-10T03:32:17.376Z,16.54
2017-08-10T03:33:29.977Z,16.55
2017-08-10T03:34:42.550Z,16.57
2017-08-10T03:35:54.814Z,16.58
2017-08-10T03:37:07.462Z,16.54
2017-08-10T03:38:20.111Z,16.59
2017-08-10T03:39:32.714Z,16.59
2017-08-10T03:40:45.344Z,16.58
2017-08-10T03:41:57.945Z,16.54
2017-08-10T03:43:09.931Z,16.61
2017-08-10T03:44:22.212Z,16.55
2017-08-10T03:45:34.795Z,16.54
2017-08-10T03:46:47.397Z,16.49
2017-08-10T03:48:00.006Z,16.47
2017-08-10T03:49:12.286Z,16.55
2017-08-10T03:50:24.888Z,16.49
2017-08-10T03:51:36.900Z,16.55
2017-08-10T03:52:49.484Z,16.55
2017-08-10T03:54:02.131Z,16.55
2017-08-10T03:55:14.661Z,16.51
2017-08-10T03:56:27.296Z,16.55
2017-08-10T03:57:39.833Z,16.55
2017-08-10T03:58:51.835Z,16.44
2017-08-10T04:00:03.786Z,16.54
2017-08-10T04:01:16.055Z,16.54
2017-08-10T04:02:28.307Z,16.51
2017-08-10T04:03:40.605Z,16.41
2017-08-10T04:04:52.892Z,16.51
2017-08-10T04:06:05.522Z,16.43
2017-08-10T04:07:17.525Z,16.5
2017-08-10T04:08:29.496Z,16.46
2017-08-10T04:09:42.053Z,16.49
2017-08-10T04:10:54.393Z,16.55
2017-08-10T04:12:06.917Z,16.46
2017-08-10T04:13:18.897Z,16.43
2017-08-10T04:14:31.583Z,16.5
2017-08-10T04:15:43.879Z,16.46
2017-08-10T04:16:56.449Z,16.51
2017-08-10T04:18:08.757Z,16.49
2017-08-10T04:19:21.016Z,16.4
2017-08-10T04:20:33.037Z,16.49
2017-08-10T04:21:45.359Z,16.5
2017-08-10T04:22:57.958Z,16.47
2017-08-10T04:24:10.499Z,16.5
2017-08-10T04:25:22.822Z,16.47
2017-08-10T04:26:35.060Z,16.43
2017-08-10T04:27:47.567Z,16.44
2017-08-10T04:29:00.163Z,16.4
2017-08-10T04:30:12.506Z,16.49
2017-08-10T04:31:25.056Z,16.46
2017-08-10T04:32:37.638Z,16.47
2017-08-10T04:33:50.219Z,16.4
2017-08-10T04:35:02.501Z,16.46
2017-08-10T04:36:15.077Z,16.44
2017-08-10T04:37:27.691Z,16.55
2017-08-10T04:38:40.302Z,16.49
2017-08-10T04:39:52.875Z,16.49
2017-08-10T04:41:05.225Z,16.54
2017-08-10T04:42:17.831Z,16.51
2017-08-10T04:43:30.438Z,16.47
2017-08-10T04:44:42.791Z,16.5
2017-08-10T04:45:55.377Z,16.44
2017-08-10T04:47:08.003Z,16.54
2017-08-10T04:48:20.247Z,16.49
2017-08-10T04:49:32.781Z,16.49
2017-08-10T04:50:44.801Z,16.46
2017-08-10T04:51:57.082Z,16.54
2017-08-10T04:53:09.030Z,16.59
2017-08-10T04:54:21.354Z,16.57
2017-08-10T04:55:33.650Z,16.59
2017-08-10T04:56:45.982Z,16.54
2017-08-10T04:57:58.603Z,16.55
2017-08-10T04:59:10.589Z,16.57
2017-08-10T05:00:23.176Z,16.54
2017-08-10T05:01:35.448Z,16.57
2017-08-10T05:02:47.723Z,16.58
2017-08-10T05:04:00.252Z,16.51
2017-08-10T05:05:12.204Z,16.58
2017-08-10T05:06:24.755Z,16.61
2017-08-10T05:07:37.370Z,16.58
2017-08-10T05:08:49.300Z,16.62
2017-08-10T05:10:01.638Z,16.61
2017-08-10T05:11:13.590Z,16.65
2017-08-10T05:12:26.171Z,16.66
2017-08-10T05:13:38.857Z,16.64
2017-08-10T05:14:51.404Z,16.58
2017-08-10T05:16:03.990Z,16.64
2017-08-10T05:17:16.292Z,16.59
2017-08-10T05:18:28.559Z,16.69
2017-08-10T05:19:41.107Z,16.73
2017-08-10T05:20:53.769Z,16.68
2017-08-10T05:22:05.721Z,16.76
2017-08-10T05:23:17.997Z,16.72
2017-08-10T05:24:30.547Z,16.74
2017-08-10T05:25:42.891Z,16.72
2017-08-10T05:26:55.249Z,16.8
2017-08-10T05:28:07.859Z,16.8
2017-08-10T05:29:20.455Z,16.74
2017-08-10T05:30:32.738Z,16.69
2017-08-10T05:31:45.349Z,16.69
2017-08-10T05:32:58.241Z,16.72
2017-08-10T05:34:10.219Z,16.74
2017-08-10T05:35:22.808Z,16.76
2017-08-10T05:36:35.433Z,16.74
2017-08-10T05:37:48.073Z,16.8
2017-08-10T05:39:00.396Z,16.79
2017-08-10T05:40:12.327Z,16.83
2017-08-10T05:41:24.615Z,16.86
2017-08-10T05:42:37.217Z,16.86
2017-08-10T05:43:49.507Z,16.84
2017-08-10T05:45:02.055Z,16.89
2017-08-10T05:46:14.021Z,16.83
2017-08-10T05:47:26.679Z,16.87
2017-08-10T05:48:39.014Z,16.83
2017-08-10T05:49:51.661Z,16.92
2017-08-10T05:51:04.268Z,16.94
2017-08-10T05:52:16.836Z,16.98
2017-08-10T05:53:29.351Z,16.97
2017-08-10T05:54:41.995Z,16.99
2017-08-10T05:55:54.532Z,16.99
2017-08-10T05:57:06.863Z,17.12
2017-08-10T05:58:19.443Z,17.13
2017-08-10T05:59:32.056Z,17.12
2017-08-10T06:00:44.324Z,17.2
2017-08-10T06:01:56.887Z,17.17
2017-08-10T06:03:09.142Z,17.3
2017-08-10T06:04:21.441Z,17.3
2017-08-10T06:05:33.723Z,17.24
2017-08-10T06:06:45.990Z,17.34
2017-08-10T06:07:58.623Z,17.37
2017-08-10T06:09:11.223Z,17.44
2017-08-10T06:10:23.773Z,17.34
2017-08-10T06:11:36.404Z,17.49
2017-08-10T06:12:49.013Z,17.54
2017-08-10T06:14:01.642Z,17.53
2017-08-10T06:15:13.623Z,17.59
2017-08-10T06:16:26.247Z,17.5
2017-08-10T06:17:38.581Z,17.66
2017-08-10T06:18:51.190Z,17.68
2017-08-10T06:20:03.687Z,17.65
2017-08-10T06:21:16.177Z,17.72
2017-08-10T06:22:28.181Z,17.6
2017-08-10T06:23:40.781Z,17.68
2017-08-10T06:24:53.321Z,17.72
2017-08-10T06:26:05.300Z,17.66
2017-08-10T06:27:17.876Z,17.79
2017-08-10T06:28:30.507Z,17.84
2017-08-10T06:29:42.488Z,17.87
2017-08-10T06:30:55.122Z,17.95
2017-08-10T06:32:07.383Z,17.91
2017-08-10T06:33:19.315Z,17.94
2017-08-10T06:34:31.667Z,18.05
2017-08-10T06:35:44.275Z,18.03
2017-08-10T06:36:56.911Z,18.16
2017-08-10T06:38:09.453Z,18.15
2017-08-10T06:39:22.066Z,18.21
2017-08-10T06:40:34.091Z,18.26
2017-08-10T06:41:46.711Z,18.37
2017-08-10T06:42:59.318Z,18.24
2017-08-10T06:44:11.904Z,18.24
2017-08-10T06:45:24.175Z,18.27
2017-08-10T06:46:36.761Z,18.33
2017-08-10T06:47:49.324Z,18.39
2017-08-10T06:49:01.959Z,18.45
2017-08-10T06:50:14.242Z,18.48
2017-08-10T06:51:26.527Z,18.55
2017-08-10T06:52:39.125Z,18.49
2017-08-10T06:53:51.696Z,18.61
2017-08-10T06:55:04.040Z,18.6
2017-08-10T06:56:16.039Z,18.66
2017-08-10T06:57:28.635Z,18.66
2017-08-10T06:58:40.920Z,18.66
2017-08-10T06:59:52.859Z,18.79
2017-08-10T07:01:05.420Z,18.88
2017-08-10T07:02:17.785Z,18.97
2017-08-10T07:03:30.062Z,19.15
2017-08-10T07:04:42.617Z,19.17
2017-08-10T07:05:54.581Z,19.24
2017-08-10T07:07:07.154Z,19.34
2017-08-10T07:08:19.722Z,19.41
2017-08-10T07:09:32.302Z,19.52
2017-08-10T07:10:44.877Z,19.39
2017-08-10T07:11:56.858Z,19.35
2017-08-10T07:13:09.495Z,19.38
2017-08-10T07:14:22.147Z,19.44
2017-08-10T07:15:34.113Z,19.57
2017-08-10T07:16:46.778Z,19.62
2017-08-10T07:17:59.415Z,19.66
2017-08-10T07:19:10.824Z,19.59
2017-08-10T07:20:23.155Z,19.62
2017-08-10T07:21:35.740Z,19.57
2017-08-10T07:22:48.117Z,19.48
2017-08-10T07:24:00.390Z,19.55
2017-08-10T07:25:12.987Z,19.59
2017-08-10T07:26:25.265Z,19.62
2017-08-10T07:27:37.903Z,19.62
2017-08-10T07:28:50.479Z,19.7
2017-08-10T07:30:03.152Z,19.71
2017-08-10T07:31:15.745Z,19.87
2017-08-10T07:32:28.321Z,19.77
2017-08-10T07:33:40.920Z,19.75
2017-08-10T07:34:53.591Z,19.79
2017-08-10T07:36:05.588Z,19.87
2017-08-10T07:37:17.899Z,19.87
2017-08-10T07:38:29.873Z,19.85
2017-08-10T07:39:41.814Z,19.79
2017-08-10T07:40:54.384Z,19.78
2017-08-10T07:42:06.623Z,19.81
2017-08-10T07:43:18.618Z,19.78
2017-08-10T07:44:31.226Z,19.84
2017-08-10T07:45:43.546Z,19.9
2017-08-10T07:46:56.116Z,19.84
2017-08-10T07:48:08.076Z,19.84
2017-08-10T07:49:20.344Z,19.78
2017-08-10T07:50:32.953Z,19.79
2017-08-10T07:51:45.251Z,19.78
2017-08-10T07:52:57.560Z,19.71
2017-08-10T07:54:10.160Z,19.77
2017-08-10T07:55:22.711Z,19.85
2017-08-10T07:56:35.055Z,19.9
2017-08-10T07:57:47.337Z,19.99
2017-08-10T07:58:59.697Z,20.03
2017-08-10T08:00:12.336Z,20.15
2017-08-10T08:01:24.372Z,20.22
2017-08-10T08:02:36.674Z,20.32
2017-08-10T08:03:48.968Z,20.52
2017-08-10T08:05:01.554Z,20.6
2017-08-10T08:06:13.855Z,20.78
2017-08-10T08:07:26.212Z,20.92
2017-08-10T08:08:38.808Z,21.17
2017-08-10T08:09:51.139Z,21.28
2017-08-10T08:11:03.707Z,21.47
2017-08-10T08:12:16.278Z,21.48
2017-08-10T08:13:28.828Z,21.53
2017-08-10T08:14:41.449Z,21.63
2017-08-10T08:15:53.727Z,21.63
2017-08-10T08:17:06.047Z,21.74
2017-08-10T08:18:18.282Z,21.81
2017-08-10T08:19:30.558Z,21.85
2017-08-10T08:20:43.064Z,21.83
2017-08-10T08:21:55.677Z,21.88
2017-08-10T08:23:07.749Z,21.88
2017-08-10T08:24:20.318Z,21.94
2017-08-10T08:25:32.614Z,21.91
2017-08-10T08:26:45.248Z,21.94
2017-08-10T08:27:57.901Z,22.01
2017-08-10T08:29:10.488Z,22.01
2017-08-10T08:30:23.061Z,22.04
2017-08-10T08:31:35.298Z,22.15
2017-08-10T08:32:47.966Z,22.19
2017-08-10T08:34:00.523Z,22.26
2017-08-10T08:35:12.527Z,22.36
2017-08-10T08:36:25.134Z,22.34
2017-08-10T08:37:37.747Z,22.46
2017-08-10T08:38:50.042Z,22.53
2017-08-10T08:40:02.617Z,22.43
2017-08-10T08:41:14.961Z,22.4
2017-08-10T08:42:27.577Z,22.56
2017-08-10T08:43:40.201Z,22.61
2017-08-10T08:44:52.847Z,22.61
2017-08-10T08:46:05.399Z,22.68
2017-08-10T08:47:18.013Z,22.8
2017-08-10T08:48:30.634Z,22.86
2017-08-10T08:49:42.956Z,22.92
2017-08-10T08:50:55.554Z,22.88
2017-08-10T08:52:08.224Z,22.92
2017-08-10T08:53:20.488Z,22.92
2017-08-10T08:54:32.496Z,22.98
2017-08-10T08:55:44.808Z,22.95
2017-08-10T08:56:56.495Z,22.98
2017-08-10T08:58:08.804Z,23.14
2017-08-10T08:59:21.423Z,23.2
2017-08-10T09:00:33.717Z,23.17
2017-08-10T09:01:45.961Z,23.21
2017-08-10T09:02:58.533Z,23.18
2017-08-10T09:04:11.079Z,23.18
2017-08-10T09:05:23.677Z,23.23
2017-08-10T09:06:36.301Z,23.06
2017-08-10T09:07:48.666Z,23.14
2017-08-10T09:09:01.229Z,23.25
2017-08-10T09:10:13.487Z,23.28
2017-08-10T09:11:25.746Z,23.32
2017-08-10T09:12:38.352Z,23.4
2017-08-10T09:13:50.903Z,23.44
2017-08-10T09:15:03.158Z,23.49
2017-08-10T09:16:15.113Z,23.48
2017-08-10T09:17:27.681Z,23.59
2017-08-10T09:18:39.921Z,23.79
2017-08-10T09:19:52.477Z,23.82
2017-08-10T09:21:04.452Z,23.91
2017-08-10T09:22:16.410Z,24.04
2017-08-10T09:23:29.040Z,24.1
2017-08-10T09:24:41.275Z,24.19
2017-08-10T09:25:53.816Z,24.18
2017-08-10T09:27:06.053Z,24.22
2017-08-10T09:28:18.372Z,24.31
2017-08-10T09:29:30.697Z,24.25
2017-08-10T09:30:43.036Z,24.29
2017-08-10T09:31:55.627Z,24.41
2017-08-10T09:33:07.939Z,24.44
2017-08-10T09:34:19.937Z,24.62
2017-08-10T09:35:32.302Z,24.69
2017-08-10T09:36:44.595Z,24.74
2017-08-10T09:37:56.888Z,24.84
2017-08-10T09:39:09.152Z,24.99
2017-08-10T09:40:21.734Z,25.14
2017-08-10T09:41:34.110Z,25.33
2017-08-10T09:42:46.690Z,25.3
2017-08-10T09:43:59.004Z,25.29
2017-08-10T09:45:11.615Z,25.41
2017-08-10T09:46:23.271Z,25.59
2017-08-10T09:47:35.871Z,25.71
2017-08-10T09:48:47.927Z,25.59
2017-08-10T09:50:00.484Z,25.74
2017-08-10T09:51:11.875Z,25.74
2017-08-10T09:52:24.139Z,25.76
2017-08-10T09:53:36.662Z,25.85
2017-08-10T09:54:48.961Z,25.83
2017-08-10T09:56:01.569Z,25.96
2017-08-10T09:57:14.162Z,25.95
2017-08-10T09:58:26.737Z,25.86
2017-08-10T09:59:38.747Z,25.86
2017-08-10T10:00:51.011Z,25.91
2017-08-10T10:02:03.582Z,25.8
2017-08-10T10:03:15.872Z,25.85
2017-08-10T10:04:28.130Z,25.74
2017-08-10T10:05:40.194Z,25.74
2017-08-10T10:06:52.771Z,25.85
2017-08-10T10:08:05.085Z,25.74
2017-08-10T10:09:17.408Z,25.89
2017-08-10T10:10:30.008Z,25.96
2017-08-10T10:11:42.024Z,26.06
2017-08-10T10:12:54.605Z,25.92
2017-08-10T10:14:06.615Z,26.07
2017-08-10T10:15:19.227Z,26.08
2017-08-10T10:16:31.875Z,26.13
2017-08-10T10:17:44.456Z,26.23
2017-08-10T10:18:56.766Z,26.49
2017-08-10T10:20:09.471Z,26.59
2017-08-10T10:21:22.090Z,26.66
2017-08-10T10:22:34.354Z,26.68
2017-08-10T10:23:46.937Z,26.83
2017-08-10T10:24:59.205Z,26.98
2017-08-10T10:26:11.773Z,27.19
2017-08-10T10:27:23.800Z,27.38
2017-08-10T10:28:36.404Z,27.66
2017-08-10T10:29:48.687Z,27.9
2017-08-10T10:31:01.286Z,28.23
2017-08-10T10:32:13.323Z,28.4
2017-08-10T10:33:25.892Z,28.67
2017-08-10T10:34:38.222Z,28.7
2017-08-10T10:35:50.534Z,28.86
2017-08-10T10:37:02.541Z,29.03
2017-08-10T10:38:14.575Z,29.02
2017-08-10T10:39:26.568Z,29.3
2017-08-10T10:40:38.900Z,29.42
2017-08-10T10:41:51.245Z,29.57
2017-08-10T10:43:03.521Z,29.61
2017-08-10T10:44:15.866Z,29.64
2017-08-10T10:45:28.502Z,29.73
2017-08-10T10:46:40.830Z,29.79
2017-08-10T10:47:53.434Z,30.03
2017-08-10T10:49:05.390Z,30.33
2017-08-10T10:50:17.992Z,30.43
2017-08-10T10:51:30.350Z,30.46
2017-08-10T10:52:42.677Z,30.62
2017-08-10T10:53:54.710Z,30.95
2017-08-10T10:55:07.326Z,31.02
2017-08-10T10:56:18.676Z,31.17
2017-08-10T10:57:30.961Z,31.1
2017-08-10T10:58:43.267Z,31.48
2017-08-10T10:59:55.587Z,31.72
2017-08-10T11:01:08.249Z,31.87
2017-08-10T11:02:20.845Z,31.95
2017-08-10T11:03:33.047Z,31.79
2017-08-10T11:04:45.676Z,31.93
2017-08-10T11:05:58.342Z,32.07
2017-08-10T11:07:10.377Z,32.3
2017-08-10T11:08:22.042Z,32.56
2017-08-10T11:09:34.064Z,32.73
2017-08-10T11:10:46.050Z,32.72
2017-08-10T11:11:58.371Z,32.88
2017-08-10T11:13:10.942Z,32.88
2017-08-10T11:14:22.987Z,33.08
2017-08-10T11:15:34.989Z,33.29
2017-08-10T11:16:46.986Z,33.2
2017-08-10T11:17:59.630Z,33.33
2017-08-10T11:19:11.664Z,33.28
2017-08-10T11:20:23.984Z,33.35
2017-08-10T11:21:36.563Z,33.32
2017-08-10T11:22:48.586Z,33.32
2017-08-10T11:24:00.584Z,33.39
2017-08-10T11:25:12.936Z,33.4
2017-08-10T11:26:25.547Z,33.53
2017-08-10T11:27:38.209Z,33.16
2017-08-10T11:28:50.549Z,33.33
2017-08-10T11:30:02.861Z,33.36
2017-08-10T11:31:15.472Z,33.35
2017-08-10T11:32:27.461Z,33.23
2017-08-10T11:33:40.116Z,33.31
2017-08-10T11:34:52.735Z,33.35
2017-08-10T11:36:05.351Z,33.38
2017-08-10T11:37:16.785Z,33.4
2017-08-10T11:38:29.048Z,33.38
2017-08-10T11:39:41.301Z,33.45
2017-08-10T11:40:53.900Z,33.53
2017-08-10T11:42:06.510Z,33.57
2017-08-10T11:43:19.080Z,33.42
2017-08-10T11:44:31.153Z,33.58
2017-08-10T11:45:43.630Z,33.67
2017-08-10T11:46:55.920Z,33.77
2017-08-10T11:48:08.251Z,33.72
2017-08-10T11:49:20.583Z,33.75
2017-08-10T11:50:32.900Z,33.72
2017-08-10T11:51:45.564Z,33.6
2017-08-10T11:52:58.198Z,33.54
2017-08-10T11:54:10.841Z,33.26
2017-08-10T11:55:23.465Z,33.13
2017-08-10T11:56:35.417Z,33.05
2017-08-10T11:57:48.091Z,33.16
2017-08-10T11:59:00.728Z,32.98
2017-08-10T12:00:13.033Z,33.16
2017-08-10T12:01:25.328Z,33.05
2017-08-10T12:02:37.891Z,33
2017-08-10T12:03:50.556Z,33.15
2017-08-10T12:05:02.568Z,33.31
2017-08-10T12:06:14.805Z,33.31
2017-08-10T12:07:26.801Z,33.45
2017-08-10T12:08:39.446Z,33.55
2017-08-10T12:09:52.111Z,33.73
2017-08-10T12:11:04.447Z,33.81
2017-08-10T12:12:16.439Z,33.94
2017-08-10T12:13:29.048Z,34.07
2017-08-10T12:14:41.336Z,33.89
2017-08-10T12:15:53.064Z,34.03
2017-08-10T12:17:05.067Z,33.89
2017-08-10T12:18:17.702Z,34.07
2017-08-10T12:19:29.995Z,34.16
2017-08-10T12:20:42.629Z,34.28
2017-08-10T12:21:54.994Z,34.19
2017-08-10T12:23:07.655Z,34.44
2017-08-10T12:24:19.962Z,34.32
2017-08-10T12:25:32.001Z,34.29
2017-08-10T12:26:44.342Z,34.28
2017-08-10T12:27:56.895Z,34.4
2017-08-10T12:29:09.501Z,34.31
2017-08-10T12:30:21.457Z,34.21
2017-08-10T12:31:33.705Z,34.22
2017-08-10T12:32:45.672Z,34.22
2017-08-10T12:33:58.290Z,34.22
2017-08-10T12:35:09.990Z,34.25
2017-08-10T12:36:22.288Z,33.94
2017-08-10T12:37:34.557Z,33.79
2017-08-10T12:38:46.575Z,33.61
2017-08-10T12:39:59.233Z,33.53
2017-08-10T12:41:11.820Z,33.4
2017-08-10T12:42:24.463Z,33.01
2017-08-10T12:43:36.709Z,32.94
2017-08-10T12:44:49.335Z,32.9
2017-08-10T12:46:01.939Z,32.86
2017-08-10T12:47:13.973Z,32.88
2017-08-10T12:48:26.265Z,32.81
2017-08-10T12:49:38.244Z,32.85
2017-08-10T12:50:50.803Z,32.81
2017-08-10T12:52:03.110Z,32.76
2017-08-10T12:53:15.438Z,32.83
2017-08-10T12:54:27.816Z,32.78
2017-08-10T12:55:40.418Z,32.73
2017-08-10T12:56:52.364Z,32.6
2017-08-10T12:58:05.046Z,32.66
2017-08-10T12:59:17.400Z,32.35
2017-08-10T13:00:30.004Z,32.15
2017-08-10T13:01:42.597Z,31.97
2017-08-10T13:02:54.952Z,31.73
2017-08-10T13:04:07.533Z,31.7
2017-08-10T13:05:20.110Z,31.78
2017-08-10T13:06:32.408Z,31.89
2017-08-10T13:07:45.005Z,31.95
2017-08-10T13:08:57.042Z,31.9
2017-08-10T13:10:09.316Z,32.02
2017-08-10T13:11:20.991Z,31.7
2017-08-10T13:12:33.290Z,31.7
2017-08-10T13:13:45.340Z,31.66
2017-08-10T13:14:57.911Z,31.73
2017-08-10T13:16:09.953Z,31.73
2017-08-10T13:17:21.646Z,31.74
2017-08-10T13:18:33.918Z,31.63
2017-08-10T13:19:45.912Z,31.57
2017-08-10T13:20:58.245Z,31.41
2017-08-10T13:22:10.573Z,31.28
2017-08-10T13:23:22.929Z,31.22
2017-08-10T13:24:35.271Z,31.1
2017-08-10T13:25:47.565Z,31.13
2017-08-10T13:26:59.231Z,31.11
2017-08-10T13:28:11.552Z,31.13
2017-08-10T13:29:24.121Z,31.13
2017-08-10T13:30:36.086Z,31.14
2017-08-10T13:31:48.653Z,31.26
2017-08-10T13:33:01.193Z,31.32
2017-08-10T13:34:13.156Z,31.17
2017-08-10T13:35:25.733Z,31.32
2017-08-10T13:36:37.391Z,31.25
2017-08-10T13:37:49.755Z,31.2
2017-08-10T13:39:02.098Z,31.08
2017-08-10T13:40:14.378Z,31.15
2017-08-10T13:41:26.676Z,31.13
2017-08-10T13:42:38.971Z,31.2
2017-08-10T13:43:51.030Z,30.88
2017-08-10T13:45:03.605Z,30.89
2017-08-10T13:46:16.176Z,30.89
2017-08-10T13:47:28.425Z,30.88
2017-08-10T13:48:40.974Z,30.92
2017-08-10T13:49:53.620Z,30.92
2017-08-10T13:51:05.956Z,31.13
2017-08-10T13:52:18.237Z,31.13
2017-08-10T13:53:30.923Z,31.17
2017-08-10T13:54:43.260Z,31.17
2017-08-10T13:55:55.597Z,31.26
2017-08-10T13:57:07.928Z,31.33
2017-08-10T13:58:20.538Z,31.42
2017-08-10T13:59:33.120Z,31.29
2017-08-10T14:00:45.376Z,31.26
2017-08-10T14:01:58.070Z,31.05
2017-08-10T14:03:10.391Z,31.14
2017-08-10T14:04:22.383Z,30.93
2017-08-10T14:05:34.392Z,30.89
2017-08-10T14:06:47.007Z,30.67
2017-08-10T14:07:59.642Z,30.7
2017-08-10T14:09:11.959Z,30.59
2017-08-10T14:10:24.252Z,30.46
2017-08-10T14:11:36.322Z,30.27
2017-08-10T14:12:48.661Z,30.17
2017-08-10T14:14:01.271Z,29.94
2017-08-10T14:15:13.560Z,29.84
2017-08-10T14:16:26.187Z,29.73
2017-08-10T14:17:38.828Z,29.61
2017-08-10T14:18:51.178Z,29.47
2017-08-10T14:20:03.801Z,29.39
2017-08-10T14:21:16.112Z,29.34
2017-08-10T14:22:28.360Z,29.18
2017-08-10T14:23:40.034Z,29.05
2017-08-10T14:24:52.415Z,28.89
2017-08-10T14:26:05.051Z,28.86
2017-08-10T14:27:17.060Z,28.74
2017-08-10T14:28:29.657Z,28.68
2017-08-10T14:29:41.879Z,28.62
2017-08-10T14:30:54.164Z,28.68
2017-08-10T14:32:06.772Z,28.59
2017-08-10T14:33:19.381Z,28.57
2017-08-10T14:34:32.002Z,28.4
2017-08-10T14:35:44.259Z,28.34
2017-08-10T14:36:56.900Z,28.27
2017-08-10T14:38:08.938Z,28.27
2017-08-10T14:39:21.207Z,28.22
2017-08-10T14:40:33.875Z,28.19
2017-08-10T14:41:46.210Z,28.15
2017-08-10T14:42:58.508Z,28.12
2017-08-10T14:44:11.126Z,28.08
2017-08-10T14:45:23.724Z,28.06
2017-08-10T14:46:36.109Z,28
2017-08-10T14:47:48.081Z,27.91
2017-08-10T14:49:00.713Z,28
2017-08-10T14:50:12.704Z,27.88
2017-08-10T14:51:25.296Z,27.81
2017-08-10T14:52:37.952Z,27.73
2017-08-10T14:53:50.269Z,27.76
2017-08-10T14:55:02.854Z,27.68
2017-08-10T14:56:15.474Z,27.63
2017-08-10T14:57:28.137Z,27.66
2017-08-10T14:58:40.111Z,27.58
2017-08-10T14:59:52.091Z,27.57
2017-08-10T15:01:04.778Z,27.48
2017-08-10T15:02:17.343Z,27.48
2017-08-10T15:03:29.728Z,27.4
2017-08-10T15:04:42.326Z,27.47
2017-08-10T15:05:54.883Z,27.4
2017-08-10T15:07:07.519Z,27.3
2017-08-10T15:08:19.823Z,27.38
2017-08-10T15:09:32.395Z,27.34
2017-08-10T15:10:44.703Z,27.28
2017-08-10T15:11:56.686Z,27.29
2017-08-10T15:13:08.979Z,27.3
2017-08-10T15:14:20.930Z,27.16
2017-08-10T15:15:33.474Z,27.2
2017-08-10T15:16:45.779Z,27.08
2017-08-10T15:17:58.115Z,27.05
2017-08-10T15:19:10.663Z,26.98
2017-08-10T15:20:22.629Z,27.05
2017-08-10T15:21:34.967Z,27.03
2017-08-10T15:22:47.282Z,26.96
2017-08-10T15:23:59.922Z,26.96
2017-08-10T15:25:11.909Z,26.93
2017-08-10T15:26:23.840Z,26.92
2017-08-10T15:27:36.404Z,26.91
2017-08-10T15:28:48.374Z,26.86
2017-08-10T15:30:00.683Z,26.93
2017-08-10T15:31:13.003Z,26.97
2017-08-10T15:32:25.366Z,26.86
2017-08-10T15:33:37.687Z,26.79
2017-08-10T15:34:49.979Z,26.81